sensor_id;sensor_type;location;lat;lon;timestamp;temperature;humidity
36800;DHT22;22752;51.960;5.886;2023-09-30T00:01:11;11.50;99.90
36800;DHT22;22752;51.960;5.886;2023-09-30T00:03:37;11.60;99.90
36800;DHT22;22752;51.960;5.886;2023-09-30T00:06:03;11.60;99.90
36800;DHT22;22752;51.960;5.886;2023-09-30T00:08:29;11.60;99.90
36800;DHT22;22752;51.960;5.886;2023-09-30T00:10:55;11.60;99.90
36800;DHT22;22752;51.960;5.886;2023-09-30T00:13:21;11.60;99.90
36800;DHT22;22752;51.960;5.886;2023-09-30T00:15:47;11.60;99.90
36800;DHT22;22752;51.960;5.886;2023-09-30T00:18:12;11.70;99.90
36800;DHT22;22752;51.960;5.886;2023-09-30T00:20:39;11.70;99.90
36800;DHT22;22752;51.960;5.886;2023-09-30T00:23:05;11.70;99.90
36800;DHT22;22752;51.960;5.886;2023-09-30T00:25:32;11.70;99.90
36800;DHT22;22752;51.960;5.886;2023-09-30T00:27:57;11.70;99.90
36800;DHT22;22752;51.960;5.886;2023-09-30T00:30:23;11.70;99.90
36800;DHT22;22752;51.960;5.886;2023-09-30T00:32:48;11.70;99.90
36800;DHT22;22752;51.960;5.886;2023-09-30T00:35:14;11.70;99.90
36800;DHT22;22752;51.960;5.886;2023-09-30T00:37:42;11.70;99.90
36800;DHT22;22752;51.960;5.886;2023-09-30T00:40:08;11.70;99.90
36800;DHT22;22752;51.960;5.886;2023-09-30T00:42:40;11.60;99.90
36800;DHT22;22752;51.960;5.886;2023-09-30T00:45:07;11.60;99.90
36800;DHT22;22752;51.960;5.886;2023-09-30T00:47:34;11.50;99.90
36800;DHT22;22752;51.960;5.886;2023-09-30T00:50:01;11.50;99.90
36800;DHT22;22752;51.960;5.886;2023-09-30T00:52:30;11.50;99.90
36800;DHT22;22752;51.960;5.886;2023-09-30T00:54:57;11.50;99.90
36800;DHT22;22752;51.960;5.886;2023-09-30T00:57:23;11.50;99.90
36800;DHT22;22752;51.960;5.886;2023-09-30T00:59:50;11.40;99.90
36800;DHT22;22752;51.960;5.886;2023-09-30T01:02:17;11.40;99.90
36800;DHT22;22752;51.960;5.886;2023-09-30T01:04:44;11.40;99.90
36800;DHT22;22752;51.960;5.886;2023-09-30T01:07:09;11.30;99.90
36800;DHT22;22752;51.960;5.886;2023-09-30T01:09:37;11.30;99.90
36800;DHT22;22752;51.960;5.886;2023-09-30T01:12:02;11.30;99.90
36800;DHT22;22752;51.960;5.886;2023-09-30T01:14:30;11.20;99.90
36800;DHT22;22752;51.960;5.886;2023-09-30T01:16:57;11.20;99.90
36800;DHT22;22752;51.960;5.886;2023-09-30T01:19:24;11.20;99.90
36800;DHT22;22752;51.960;5.886;2023-09-30T01:21:57;11.10;99.90
36800;DHT22;22752;51.960;5.886;2023-09-30T01:24:26;11.10;99.90
36800;DHT22;22752;51.960;5.886;2023-09-30T01:26:52;11.10;99.90
36800;DHT22;22752;51.960;5.886;2023-09-30T01:29:19;11.00;99.90
36800;DHT22;22752;51.960;5.886;2023-09-30T01:31:44;11.00;99.90
36800;DHT22;22752;51.960;5.886;2023-09-30T01:34:14;11.00;99.90
36800;DHT22;22752;51.960;5.886;2023-09-30T01:36:41;11.00;99.90
36800;DHT22;22752;51.960;5.886;2023-09-30T01:39:07;10.90;99.90
36800;DHT22;22752;51.960;5.886;2023-09-30T01:41:32;10.90;99.90
36800;DHT22;22752;51.960;5.886;2023-09-30T01:43:58;10.90;99.90
36800;DHT22;22752;51.960;5.886;2023-09-30T01:46:24;10.90;99.90
36800;DHT22;22752;51.960;5.886;2023-09-30T01:48:49;10.90;99.90
36800;DHT22;22752;51.960;5.886;2023-09-30T01:51:15;10.80;99.90
36800;DHT22;22752;51.960;5.886;2023-09-30T01:53:41;10.80;99.90
36800;DHT22;22752;51.960;5.886;2023-09-30T01:56:07;10.80;99.90
36800;DHT22;22752;51.960;5.886;2023-09-30T01:58:33;10.70;99.90
36800;DHT22;22752;51.960;5.886;2023-09-30T02:01:05;10.70;99.90
36800;DHT22;22752;51.960;5.886;2023-09-30T02:03:30;10.70;99.90
36800;DHT22;22752;51.960;5.886;2023-09-30T02:05:57;10.60;99.90
36800;DHT22;22752;51.960;5.886;2023-09-30T02:08:23;10.70;99.90
36800;DHT22;22752;51.960;5.886;2023-09-30T02:10:49;10.70;99.90
36800;DHT22;22752;51.960;5.886;2023-09-30T02:13:16;10.60;99.90
36800;DHT22;22752;51.960;5.886;2023-09-30T02:15:43;10.60;99.90
36800;DHT22;22752;51.960;5.886;2023-09-30T02:18:09;10.60;99.90
36800;DHT22;22752;51.960;5.886;2023-09-30T02:20:35;10.60;99.90
36800;DHT22;22752;51.960;5.886;2023-09-30T02:23:05;10.70;99.90
36800;DHT22;22752;51.960;5.886;2023-09-30T02:25:31;10.70;99.90
36800;DHT22;22752;51.960;5.886;2023-09-30T02:27:58;10.70;99.90
36800;DHT22;22752;51.960;5.886;2023-09-30T02:30:24;10.70;99.90
36800;DHT22;22752;51.960;5.886;2023-09-30T02:32:50;10.80;99.90
36800;DHT22;22752;51.960;5.886;2023-09-30T02:35:16;10.80;99.90
36800;DHT22;22752;51.960;5.886;2023-09-30T02:37:41;10.80;99.90
36800;DHT22;22752;51.960;5.886;2023-09-30T02:40:08;10.90;99.90
36800;DHT22;22752;51.960;5.886;2023-09-30T02:42:40;11.00;99.90
36800;DHT22;22752;51.960;5.886;2023-09-30T02:45:07;11.10;99.90
36800;DHT22;22752;51.960;5.886;2023-09-30T02:47:37;11.20;99.90
36800;DHT22;22752;51.960;5.886;2023-09-30T02:50:04;11.30;99.90
36800;DHT22;22752;51.960;5.886;2023-09-30T02:52:30;11.30;99.90
36800;DHT22;22752;51.960;5.886;2023-09-30T02:54:56;11.40;99.90
36800;DHT22;22752;51.960;5.886;2023-09-30T02:57:23;11.40;99.90
36800;DHT22;22752;51.960;5.886;2023-09-30T02:59:49;11.50;99.90
36800;DHT22;22752;51.960;5.886;2023-09-30T03:02:14;11.50;99.90
36800;DHT22;22752;51.960;5.886;2023-09-30T03:04:43;11.50;99.90
36800;DHT22;22752;51.960;5.886;2023-09-30T03:07:10;11.60;99.90
36800;DHT22;22752;51.960;5.886;2023-09-30T03:09:35;11.60;99.90
36800;DHT22;22752;51.960;5.886;2023-09-30T03:12:02;11.70;99.90
36800;DHT22;22752;51.960;5.886;2023-09-30T03:14:28;11.70;99.90
36800;DHT22;22752;51.960;5.886;2023-09-30T03:16:57;11.70;99.90
36800;DHT22;22752;51.960;5.886;2023-09-30T03:19:22;11.80;99.90
36800;DHT22;22752;51.960;5.886;2023-09-30T03:21:48;11.80;99.90
36800;DHT22;22752;51.960;5.886;2023-09-30T03:24:14;11.90;99.90
36800;DHT22;22752;51.960;5.886;2023-09-30T03:26:39;11.90;99.90
36800;DHT22;22752;51.960;5.886;2023-09-30T03:29:07;11.90;99.90
36800;DHT22;22752;51.960;5.886;2023-09-30T03:31:34;11.90;99.90
36800;DHT22;22752;51.960;5.886;2023-09-30T03:34:00;11.90;99.90
36800;DHT22;22752;51.960;5.886;2023-09-30T03:36:26;11.80;99.90
36800;DHT22;22752;51.960;5.886;2023-09-30T03:38:53;11.80;99.90
36800;DHT22;22752;51.960;5.886;2023-09-30T03:41:24;11.80;99.90
36800;DHT22;22752;51.960;5.886;2023-09-30T03:43:50;11.80;99.90
36800;DHT22;22752;51.960;5.886;2023-09-30T03:46:16;11.70;99.90
36800;DHT22;22752;51.960;5.886;2023-09-30T03:48:42;11.70;99.90
36800;DHT22;22752;51.960;5.886;2023-09-30T03:51:13;11.70;99.90
36800;DHT22;22752;51.960;5.886;2023-09-30T03:53:42;11.70;99.90
36800;DHT22;22752;51.960;5.886;2023-09-30T03:56:08;11.60;99.90
36800;DHT22;22752;51.960;5.886;2023-09-30T03:58:37;11.60;99.90
36800;DHT22;22752;51.960;5.886;2023-09-30T04:01:03;11.70;99.90
36800;DHT22;22752;51.960;5.886;2023-09-30T04:03:30;11.70;99.90
36800;DHT22;22752;51.960;5.886;2023-09-30T04:05:58;11.70;99.90
36800;DHT22;22752;51.960;5.886;2023-09-30T04:08:24;11.70;99.90
36800;DHT22;22752;51.960;5.886;2023-09-30T04:10:50;11.70;99.90
36800;DHT22;22752;51.960;5.886;2023-09-30T04:13:15;11.70;99.90
36800;DHT22;22752;51.960;5.886;2023-09-30T04:15:43;11.70;99.90
36800;DHT22;22752;51.960;5.886;2023-09-30T04:18:10;11.70;99.90
36800;DHT22;22752;51.960;5.886;2023-09-30T04:20:37;11.70;99.90
36800;DHT22;22752;51.960;5.886;2023-09-30T04:23:05;11.70;99.90
36800;DHT22;22752;51.960;5.886;2023-09-30T04:25:32;11.70;99.90
36800;DHT22;22752;51.960;5.886;2023-09-30T04:27:57;11.70;99.90
36800;DHT22;22752;51.960;5.886;2023-09-30T04:30:23;11.70;99.90
36800;DHT22;22752;51.960;5.886;2023-09-30T04:32:49;11.70;99.90
36800;DHT22;22752;51.960;5.886;2023-09-30T04:35:14;11.70;99.90
36800;DHT22;22752;51.960;5.886;2023-09-30T04:37:40;11.70;99.90
36800;DHT22;22752;51.960;5.886;2023-09-30T04:40:08;11.60;99.90
36800;DHT22;22752;51.960;5.886;2023-09-30T04:42:43;11.60;99.90
36800;DHT22;22752;51.960;5.886;2023-09-30T04:45:13;11.60;99.90
36800;DHT22;22752;51.960;5.886;2023-09-30T04:47:42;11.60;99.90
36800;DHT22;22752;51.960;5.886;2023-09-30T04:50:10;11.70;99.90
36800;DHT22;22752;51.960;5.886;2023-09-30T04:52:37;11.70;99.90
36800;DHT22;22752;51.960;5.886;2023-09-30T04:55:04;11.70;99.90
36800;DHT22;22752;51.960;5.886;2023-09-30T04:57:30;11.70;99.90
36800;DHT22;22752;51.960;5.886;2023-09-30T04:59:57;11.80;99.90
36800;DHT22;22752;51.960;5.886;2023-09-30T05:02:24;11.80;99.90
36800;DHT22;22752;51.960;5.886;2023-09-30T05:04:49;11.80;99.90
36800;DHT22;22752;51.960;5.886;2023-09-30T05:07:15;11.80;99.90
36800;DHT22;22752;51.960;5.886;2023-09-30T05:09:41;11.80;99.90
36800;DHT22;22752;51.960;5.886;2023-09-30T05:12:08;11.80;99.90
36800;DHT22;22752;51.960;5.886;2023-09-30T05:14:34;11.80;99.90
36800;DHT22;22752;51.960;5.886;2023-09-30T05:17:00;11.80;99.90
36800;DHT22;22752;51.960;5.886;2023-09-30T05:19:26;11.80;99.90
36800;DHT22;22752;51.960;5.886;2023-09-30T05:21:52;11.80;99.90
36800;DHT22;22752;51.960;5.886;2023-09-30T05:24:18;11.80;99.90
36800;DHT22;22752;51.960;5.886;2023-09-30T05:26:44;11.70;99.90
36800;DHT22;22752;51.960;5.886;2023-09-30T05:29:10;11.70;99.90
36800;DHT22;22752;51.960;5.886;2023-09-30T05:31:36;11.70;99.90
36800;DHT22;22752;51.960;5.886;2023-09-30T05:34:02;11.70;99.90
36800;DHT22;22752;51.960;5.886;2023-09-30T05:36:30;11.70;99.90
36800;DHT22;22752;51.960;5.886;2023-09-30T05:38:55;11.70;99.90
36800;DHT22;22752;51.960;5.886;2023-09-30T05:41:21;11.70;99.90
36800;DHT22;22752;51.960;5.886;2023-09-30T05:43:47;11.70;99.90
36800;DHT22;22752;51.960;5.886;2023-09-30T05:46:13;11.70;99.90
36800;DHT22;22752;51.960;5.886;2023-09-30T05:48:38;11.70;99.90
36800;DHT22;22752;51.960;5.886;2023-09-30T05:51:05;11.70;99.90
36800;DHT22;22752;51.960;5.886;2023-09-30T05:53:31;11.60;99.90
36800;DHT22;22752;51.960;5.886;2023-09-30T05:56:01;11.60;99.90
36800;DHT22;22752;51.960;5.886;2023-09-30T05:58:26;11.60;99.90
36800;DHT22;22752;51.960;5.886;2023-09-30T06:00:55;11.60;99.90
36800;DHT22;22752;51.960;5.886;2023-09-30T06:03:21;11.60;99.90
36800;DHT22;22752;51.960;5.886;2023-09-30T06:05:49;11.70;99.90
36800;DHT22;22752;51.960;5.886;2023-09-30T06:08:15;11.70;99.90
36800;DHT22;22752;51.960;5.886;2023-09-30T06:10:43;11.70;99.90
36800;DHT22;22752;51.960;5.886;2023-09-30T06:13:10;11.70;99.90
36800;DHT22;22752;51.960;5.886;2023-09-30T06:15:42;11.80;99.90
36800;DHT22;22752;51.960;5.886;2023-09-30T06:18:09;11.90;99.90
36800;DHT22;22752;51.960;5.886;2023-09-30T06:20:36;11.90;99.90
36800;DHT22;22752;51.960;5.886;2023-09-30T06:23:01;12.00;99.90
36800;DHT22;22752;51.960;5.886;2023-09-30T06:25:27;12.10;99.90
36800;DHT22;22752;51.960;5.886;2023-09-30T06:27:53;12.20;99.90
36800;DHT22;22752;51.960;5.886;2023-09-30T06:30:22;12.40;99.90
36800;DHT22;22752;51.960;5.886;2023-09-30T06:32:57;12.80;99.90
36800;DHT22;22752;51.960;5.886;2023-09-30T06:35:25;13.20;99.90
36800;DHT22;22752;51.960;5.886;2023-09-30T06:37:51;13.60;99.90
36800;DHT22;22752;51.960;5.886;2023-09-30T06:40:17;14.00;99.90
36800;DHT22;22752;51.960;5.886;2023-09-30T06:42:44;14.30;99.90
36800;DHT22;22752;51.960;5.886;2023-09-30T06:45:10;14.60;99.90
36800;DHT22;22752;51.960;5.886;2023-09-30T06:47:37;14.90;99.90
36800;DHT22;22752;51.960;5.886;2023-09-30T06:50:05;15.20;99.90
36800;DHT22;22752;51.960;5.886;2023-09-30T06:52:40;15.40;99.90
36800;DHT22;22752;51.960;5.886;2023-09-30T06:55:07;15.60;99.90
36800;DHT22;22752;51.960;5.886;2023-09-30T06:57:37;15.70;99.90
36800;DHT22;22752;51.960;5.886;2023-09-30T07:00:10;15.70;99.90
36800;DHT22;22752;51.960;5.886;2023-09-30T07:02:37;15.60;99.90
36800;DHT22;22752;51.960;5.886;2023-09-30T07:05:11;15.40;99.90
36800;DHT22;22752;51.960;5.886;2023-09-30T07:07:37;15.20;99.90
36800;DHT22;22752;51.960;5.886;2023-09-30T07:10:03;15.00;99.90
36800;DHT22;22752;51.960;5.886;2023-09-30T07:12:32;14.80;99.90
36800;DHT22;22752;51.960;5.886;2023-09-30T07:15:01;14.70;99.90
36800;DHT22;22752;51.960;5.886;2023-09-30T07:17:27;14.70;99.90
36800;DHT22;22752;51.960;5.886;2023-09-30T07:19:53;14.70;99.90
36800;DHT22;22752;51.960;5.886;2023-09-30T07:22:19;15.00;99.90
36800;DHT22;22752;51.960;5.886;2023-09-30T07:24:44;15.30;99.90
36800;DHT22;22752;51.960;5.886;2023-09-30T07:27:10;15.70;99.90
36800;DHT22;22752;51.960;5.886;2023-09-30T07:29:36;15.90;99.90
36800;DHT22;22752;51.960;5.886;2023-09-30T07:32:02;16.10;99.90
36800;DHT22;22752;51.960;5.886;2023-09-30T07:34:28;16.40;99.90
36800;DHT22;22752;51.960;5.886;2023-09-30T07:36:53;16.60;99.90
36800;DHT22;22752;51.960;5.886;2023-09-30T07:39:20;16.80;99.90
36800;DHT22;22752;51.960;5.886;2023-09-30T07:41:46;17.00;99.90
36800;DHT22;22752;51.960;5.886;2023-09-30T07:44:12;17.10;99.90
36800;DHT22;22752;51.960;5.886;2023-09-30T07:46:38;17.40;99.90
36800;DHT22;22752;51.960;5.886;2023-09-30T07:49:03;17.70;99.90
36800;DHT22;22752;51.960;5.886;2023-09-30T07:51:29;18.00;99.90
36800;DHT22;22752;51.960;5.886;2023-09-30T07:53:57;18.30;99.90
36800;DHT22;22752;51.960;5.886;2023-09-30T07:56:23;18.50;99.90
36800;DHT22;22752;51.960;5.886;2023-09-30T07:58:49;18.70;99.90
36800;DHT22;22752;51.960;5.886;2023-09-30T08:01:15;18.80;99.90
36800;DHT22;22752;51.960;5.886;2023-09-30T08:03:41;19.00;99.90
36800;DHT22;22752;51.960;5.886;2023-09-30T08:06:09;19.10;99.90
36800;DHT22;22752;51.960;5.886;2023-09-30T08:08:36;19.20;99.90
36800;DHT22;22752;51.960;5.886;2023-09-30T08:11:01;19.20;99.90
36800;DHT22;22752;51.960;5.886;2023-09-30T08:13:27;19.20;99.90
36800;DHT22;22752;51.960;5.886;2023-09-30T08:15:54;19.30;99.90
36800;DHT22;22752;51.960;5.886;2023-09-30T08:18:21;19.40;99.90
36800;DHT22;22752;51.960;5.886;2023-09-30T08:20:47;19.40;99.90
36800;DHT22;22752;51.960;5.886;2023-09-30T08:23:13;19.20;99.90
36800;DHT22;22752;51.960;5.886;2023-09-30T08:25:38;19.00;99.90
36800;DHT22;22752;51.960;5.886;2023-09-30T08:28:04;18.80;99.90
36800;DHT22;22752;51.960;5.886;2023-09-30T08:30:30;18.50;99.90
36800;DHT22;22752;51.960;5.886;2023-09-30T08:32:56;18.30;99.90
36800;DHT22;22752;51.960;5.886;2023-09-30T08:35:21;18.20;99.90
36800;DHT22;22752;51.960;5.886;2023-09-30T08:37:47;18.00;99.90
36800;DHT22;22752;51.960;5.886;2023-09-30T08:40:13;17.80;99.90
36800;DHT22;22752;51.960;5.886;2023-09-30T08:42:39;17.70;99.90
36800;DHT22;22752;51.960;5.886;2023-09-30T08:45:09;17.50;99.90
36800;DHT22;22752;51.960;5.886;2023-09-30T08:47:36;17.40;99.90
36800;DHT22;22752;51.960;5.886;2023-09-30T08:50:03;17.40;99.90
36800;DHT22;22752;51.960;5.886;2023-09-30T08:52:43;17.30;99.90
36800;DHT22;22752;51.960;5.886;2023-09-30T08:55:09;17.40;99.90
36800;DHT22;22752;51.960;5.886;2023-09-30T08:57:40;17.40;99.90
36800;DHT22;22752;51.960;5.886;2023-09-30T09:00:07;17.40;99.90
36800;DHT22;22752;51.960;5.886;2023-09-30T09:02:37;17.40;99.90
36800;DHT22;22752;51.960;5.886;2023-09-30T09:05:02;17.40;99.90
36800;DHT22;22752;51.960;5.886;2023-09-30T09:07:28;17.40;99.90
36800;DHT22;22752;51.960;5.886;2023-09-30T09:10:12;17.40;99.90
36800;DHT22;22752;51.960;5.886;2023-09-30T09:12:41;17.50;99.90
36800;DHT22;22752;51.960;5.886;2023-09-30T09:15:19;17.50;99.90
36800;DHT22;22752;51.960;5.886;2023-09-30T09:17:45;17.50;99.90
36800;DHT22;22752;51.960;5.886;2023-09-30T09:20:16;17.50;99.90
36800;DHT22;22752;51.960;5.886;2023-09-30T09:22:45;17.50;99.90
36800;DHT22;22752;51.960;5.886;2023-09-30T09:25:11;17.50;99.90
36800;DHT22;22752;51.960;5.886;2023-09-30T09:27:37;17.50;99.90
36800;DHT22;22752;51.960;5.886;2023-09-30T09:30:25;17.50;99.90
36800;DHT22;22752;51.960;5.886;2023-09-30T09:33:02;17.60;99.90
36800;DHT22;22752;51.960;5.886;2023-09-30T09:35:33;17.70;99.90
36800;DHT22;22752;51.960;5.886;2023-09-30T09:38:01;17.70;99.90
36800;DHT22;22752;51.960;5.886;2023-09-30T09:40:29;17.70;99.90
36800;DHT22;22752;51.960;5.886;2023-09-30T09:42:56;17.80;99.90
36800;DHT22;22752;51.960;5.886;2023-09-30T09:45:23;17.80;99.90
36800;DHT22;22752;51.960;5.886;2023-09-30T09:47:50;17.80;99.90
36800;DHT22;22752;51.960;5.886;2023-09-30T09:50:17;17.80;99.90
36800;DHT22;22752;51.960;5.886;2023-09-30T09:52:47;17.90;99.90
36800;DHT22;22752;51.960;5.886;2023-09-30T09:55:15;17.90;99.90
36800;DHT22;22752;51.960;5.886;2023-09-30T09:57:43;17.90;99.90
36800;DHT22;22752;51.960;5.886;2023-09-30T10:00:12;18.00;99.90
36800;DHT22;22752;51.960;5.886;2023-09-30T10:02:40;18.00;99.90
36800;DHT22;22752;51.960;5.886;2023-09-30T10:05:07;18.10;99.90
36800;DHT22;22752;51.960;5.886;2023-09-30T10:08:03;18.10;99.90
36800;DHT22;22752;51.960;5.886;2023-09-30T10:10:27;18.20;99.90
36800;DHT22;22752;51.960;5.886;2023-09-30T10:12:54;18.30;99.90
36800;DHT22;22752;51.960;5.886;2023-09-30T10:20:27;18.40;99.90
36800;DHT22;22752;51.960;5.886;2023-09-30T10:25:42;18.50;99.90
36800;DHT22;22752;51.960;5.886;2023-09-30T10:31:13;18.80;99.90
36800;DHT22;22752;51.960;5.886;2023-09-30T10:36:35;19.10;99.90
36800;DHT22;22752;51.960;5.886;2023-09-30T10:39:02;19.10;99.90
36800;DHT22;22752;51.960;5.886;2023-09-30T10:46:58;19.30;99.90
36800;DHT22;22752;51.960;5.886;2023-09-30T10:51:57;19.30;99.90
36800;DHT22;22752;51.960;5.886;2023-09-30T10:54:24;19.40;99.90
36800;DHT22;22752;51.960;5.886;2023-09-30T10:56:51;19.50;99.90
36800;DHT22;22752;51.960;5.886;2023-09-30T10:59:25;19.50;99.90
36800;DHT22;22752;51.960;5.886;2023-09-30T11:01:52;19.60;99.90
36800;DHT22;22752;51.960;5.886;2023-09-30T11:04:18;19.80;99.90
36800;DHT22;22752;51.960;5.886;2023-09-30T11:06:46;19.90;99.90
36800;DHT22;22752;51.960;5.886;2023-09-30T11:09:19;20.00;99.90
36800;DHT22;22752;51.960;5.886;2023-09-30T11:11:47;20.10;99.90
36800;DHT22;22752;51.960;5.886;2023-09-30T11:14:28;20.00;99.90
36800;DHT22;22752;51.960;5.886;2023-09-30T11:16:56;20.00;99.90
36800;DHT22;22752;51.960;5.886;2023-09-30T11:19:23;20.00;99.90
36800;DHT22;22752;51.960;5.886;2023-09-30T11:21:50;20.00;99.90
36800;DHT22;22752;51.960;5.886;2023-09-30T11:24:16;20.10;99.90
36800;DHT22;22752;51.960;5.886;2023-09-30T11:26:43;20.10;99.90
36800;DHT22;22752;51.960;5.886;2023-09-30T11:29:10;20.20;99.90
36800;DHT22;22752;51.960;5.886;2023-09-30T11:31:38;20.30;99.90
36800;DHT22;22752;51.960;5.886;2023-09-30T11:34:03;20.30;99.90
36800;DHT22;22752;51.960;5.886;2023-09-30T11:36:34;20.30;99.90
36800;DHT22;22752;51.960;5.886;2023-09-30T11:39:00;20.40;99.90
36800;DHT22;22752;51.960;5.886;2023-09-30T11:41:36;20.40;99.90
36800;DHT22;22752;51.960;5.886;2023-09-30T11:44:11;20.40;99.90
36800;DHT22;22752;51.960;5.886;2023-09-30T11:47:06;20.40;99.90
36800;DHT22;22752;51.960;5.886;2023-09-30T11:49:38;20.10;99.90
36800;DHT22;22752;51.960;5.886;2023-09-30T11:52:09;20.00;99.90
36800;DHT22;22752;51.960;5.886;2023-09-30T11:54:43;19.80;99.90
36800;DHT22;22752;51.960;5.886;2023-09-30T11:57:16;19.80;99.90
36800;DHT22;22752;51.960;5.886;2023-09-30T11:59:44;19.80;99.90
36800;DHT22;22752;51.960;5.886;2023-09-30T12:02:14;19.90;99.90
36800;DHT22;22752;51.960;5.886;2023-09-30T12:04:41;20.00;99.90
36800;DHT22;22752;51.960;5.886;2023-09-30T12:07:07;20.10;99.90
36800;DHT22;22752;51.960;5.886;2023-09-30T12:09:33;20.00;99.90
36800;DHT22;22752;51.960;5.886;2023-09-30T12:12:03;20.20;99.90
36800;DHT22;22752;51.960;5.886;2023-09-30T12:14:29;20.30;99.90
36800;DHT22;22752;51.960;5.886;2023-09-30T12:16:58;20.30;99.90
36800;DHT22;22752;51.960;5.886;2023-09-30T12:19:24;20.40;99.90
36800;DHT22;22752;51.960;5.886;2023-09-30T12:21:51;20.40;99.90
36800;DHT22;22752;51.960;5.886;2023-09-30T12:24:18;20.50;99.90
36800;DHT22;22752;51.960;5.886;2023-09-30T12:26:50;20.50;99.90
36800;DHT22;22752;51.960;5.886;2023-09-30T12:29:21;20.50;99.90
36800;DHT22;22752;51.960;5.886;2023-09-30T12:31:51;20.40;99.90
36800;DHT22;22752;51.960;5.886;2023-09-30T12:34:17;20.50;99.90
36800;DHT22;22752;51.960;5.886;2023-09-30T12:36:43;20.50;99.90
36800;DHT22;22752;51.960;5.886;2023-09-30T12:39:10;20.50;99.90
36800;DHT22;22752;51.960;5.886;2023-09-30T12:41:37;20.60;99.90
36800;DHT22;22752;51.960;5.886;2023-09-30T12:44:03;20.60;99.90
36800;DHT22;22752;51.960;5.886;2023-09-30T12:46:29;20.50;99.90
36800;DHT22;22752;51.960;5.886;2023-09-30T12:48:54;20.40;99.90
36800;DHT22;22752;51.960;5.886;2023-09-30T12:51:20;20.30;99.90
36800;DHT22;22752;51.960;5.886;2023-09-30T12:53:46;20.10;99.90
36800;DHT22;22752;51.960;5.886;2023-09-30T12:56:12;20.10;99.90
36800;DHT22;22752;51.960;5.886;2023-09-30T12:58:37;20.00;99.90
36800;DHT22;22752;51.960;5.886;2023-09-30T13:01:04;19.90;99.90
36800;DHT22;22752;51.960;5.886;2023-09-30T13:03:32;20.00;99.90
36800;DHT22;22752;51.960;5.886;2023-09-30T13:05:57;19.90;99.90
36800;DHT22;22752;51.960;5.886;2023-09-30T13:08:23;19.90;99.90
36800;DHT22;22752;51.960;5.886;2023-09-30T13:10:49;19.80;99.90
36800;DHT22;22752;51.960;5.886;2023-09-30T13:13:16;19.80;99.90
36800;DHT22;22752;51.960;5.886;2023-09-30T13:15:42;19.70;99.90
36800;DHT22;22752;51.960;5.886;2023-09-30T13:18:07;19.70;99.90
36800;DHT22;22752;51.960;5.886;2023-09-30T13:20:33;19.70;99.90
36800;DHT22;22752;51.960;5.886;2023-09-30T13:22:59;19.80;99.90
36800;DHT22;22752;51.960;5.886;2023-09-30T13:25:24;19.70;99.90
36800;DHT22;22752;51.960;5.886;2023-09-30T13:27:51;19.80;99.90
36800;DHT22;22752;51.960;5.886;2023-09-30T13:30:17;19.80;99.90
36800;DHT22;22752;51.960;5.886;2023-09-30T13:32:43;19.80;99.90
36800;DHT22;22752;51.960;5.886;2023-09-30T13:35:09;19.80;99.90
36800;DHT22;22752;51.960;5.886;2023-09-30T13:37:35;19.80;99.90
36800;DHT22;22752;51.960;5.886;2023-09-30T13:40:03;19.80;99.90
36800;DHT22;22752;51.960;5.886;2023-09-30T13:42:30;19.80;99.90
36800;DHT22;22752;51.960;5.886;2023-09-30T13:44:56;19.80;99.90
36800;DHT22;22752;51.960;5.886;2023-09-30T13:47:26;19.80;99.90
36800;DHT22;22752;51.960;5.886;2023-09-30T13:49:52;19.80;99.90
36800;DHT22;22752;51.960;5.886;2023-09-30T13:52:17;19.90;99.90
36800;DHT22;22752;51.960;5.886;2023-09-30T13:54:43;20.00;99.90
36800;DHT22;22752;51.960;5.886;2023-09-30T13:57:09;20.00;99.90
36800;DHT22;22752;51.960;5.886;2023-09-30T13:59:35;20.00;99.90
36800;DHT22;22752;51.960;5.886;2023-09-30T14:02:04;20.10;99.90
36800;DHT22;22752;51.960;5.886;2023-09-30T14:04:30;20.10;99.90
36800;DHT22;22752;51.960;5.886;2023-09-30T14:07:01;20.10;99.90
36800;DHT22;22752;51.960;5.886;2023-09-30T14:09:28;20.10;99.90
36800;DHT22;22752;51.960;5.886;2023-09-30T14:11:54;20.00;99.90
36800;DHT22;22752;51.960;5.886;2023-09-30T14:14:20;19.90;99.90
36800;DHT22;22752;51.960;5.886;2023-09-30T14:16:45;19.80;99.90
36800;DHT22;22752;51.960;5.886;2023-09-30T14:19:12;19.70;99.90
36800;DHT22;22752;51.960;5.886;2023-09-30T14:21:42;19.70;99.90
36800;DHT22;22752;51.960;5.886;2023-09-30T14:24:08;19.70;99.90
36800;DHT22;22752;51.960;5.886;2023-09-30T14:26:33;19.70;99.90
36800;DHT22;22752;51.960;5.886;2023-09-30T14:28:59;19.70;99.90
36800;DHT22;22752;51.960;5.886;2023-09-30T14:31:25;19.70;99.90
36800;DHT22;22752;51.960;5.886;2023-09-30T14:33:51;19.80;99.90
36800;DHT22;22752;51.960;5.886;2023-09-30T14:36:18;19.80;99.90
36800;DHT22;22752;51.960;5.886;2023-09-30T14:38:45;19.80;99.90
36800;DHT22;22752;51.960;5.886;2023-09-30T14:41:11;19.80;99.90
36800;DHT22;22752;51.960;5.886;2023-09-30T14:43:40;19.90;99.90
36800;DHT22;22752;51.960;5.886;2023-09-30T14:46:06;19.90;99.90
36800;DHT22;22752;51.960;5.886;2023-09-30T14:48:33;20.00;99.90
36800;DHT22;22752;51.960;5.886;2023-09-30T14:50:59;20.00;99.90
36800;DHT22;22752;51.960;5.886;2023-09-30T14:53:25;20.10;99.90
36800;DHT22;22752;51.960;5.886;2023-09-30T14:55:50;20.10;99.90
36800;DHT22;22752;51.960;5.886;2023-09-30T14:58:16;20.10;99.90
36800;DHT22;22752;51.960;5.886;2023-09-30T15:00:42;20.10;99.90
36800;DHT22;22752;51.960;5.886;2023-09-30T15:03:08;20.10;99.90
36800;DHT22;22752;51.960;5.886;2023-09-30T15:05:33;20.00;99.90
36800;DHT22;22752;51.960;5.886;2023-09-30T15:08:00;20.00;99.90
36800;DHT22;22752;51.960;5.886;2023-09-30T15:10:27;19.90;99.90
36800;DHT22;22752;51.960;5.886;2023-09-30T15:12:54;19.90;99.90
36800;DHT22;22752;51.960;5.886;2023-09-30T15:15:20;19.90;99.90
36800;DHT22;22752;51.960;5.886;2023-09-30T15:17:45;19.90;99.90
36800;DHT22;22752;51.960;5.886;2023-09-30T15:20:11;19.90;99.90
36800;DHT22;22752;51.960;5.886;2023-09-30T15:22:37;19.90;99.90
36800;DHT22;22752;51.960;5.886;2023-09-30T15:25:03;19.90;99.90
36800;DHT22;22752;51.960;5.886;2023-09-30T15:27:30;19.90;99.90
36800;DHT22;22752;51.960;5.886;2023-09-30T15:29:58;19.80;99.90
36800;DHT22;22752;51.960;5.886;2023-09-30T15:32:24;19.80;99.90
36800;DHT22;22752;51.960;5.886;2023-09-30T15:34:49;19.70;99.90
36800;DHT22;22752;51.960;5.886;2023-09-30T15:37:15;19.70;99.90
36800;DHT22;22752;51.960;5.886;2023-09-30T15:39:41;19.70;99.90
36800;DHT22;22752;51.960;5.886;2023-09-30T15:42:08;19.60;99.90
36800;DHT22;22752;51.960;5.886;2023-09-30T15:44:41;19.50;99.90
36800;DHT22;22752;51.960;5.886;2023-09-30T15:47:07;19.40;99.90
36800;DHT22;22752;51.960;5.886;2023-09-30T15:49:33;19.30;99.90
36800;DHT22;22752;51.960;5.886;2023-09-30T15:51:59;19.20;99.90